• Join FlightAware (Why Join?)
  • Login
  • US Flag 
08:37AM EDT


 

Airport Tracker/Info


-or-


 

Live Flight TrackerFlight Track Log ✈ SWA2975 ✈ 06-Aug-2013 ✈ KSLC - KMDW

Flight Track Log - Related Links

Times and Time Zones

All times are in EDT time to prevent confusion due to time zone crossing. See the SWA2975 flight status page for this flight to view local times or setup timezone preferences in your user account.

Time Position Orientation Groundspeed Altitude Reporting Facility
EDT Latitude Longitude Course Direction KTS MPH feet Rate Location/Type
06:30PM 40.8010 -111.9760 355° North 184 212 4,400  Level FlightAware
06:30PM 40.8150 -111.9780 354° North 180 207 5,200 2,220 Climbing FlightAware
06:30PM 40.8320 -111.9800 355° North 201 231 5,700 1,260 Climbing FlightAware
06:31PM 40.8500 -111.9830 353° North 223 257 6,000 1,260 Climbing FlightAware
06:31PM 40.8790 -111.9860 356° North 247 284 6,700 2,100 Climbing FlightAware
06:31PM 40.9000 -111.9890 354° North 249 287 7,600 2,580 Climbing FlightAware
06:32PM 40.9140 -111.9900 357° North 259 298 8,000 2,100 Climbing FlightAware
06:32PM 40.9450 -111.9950 353° North 271 312 8,900 2,220 Climbing FlightAware
06:32PM 40.9610 -111.9970 355° North 273 314 9,400 2,700 Climbing FlightAware
06:33PM 41.0010 -112.0030 354° North 276 318 10,900 2,340 Climbing FlightAware
06:33PM 41.0440 -111.9900 13° North 304 350 12,000 1,860 Climbing FlightAware
06:33PM 41.0530 -111.9760 50° Northeast 312 359 12,300 2,160 Climbing FlightAware
06:34PM 41.0580 -111.9610 66° East 317 365 12,700 2,520 Climbing FlightAware
06:34PM 41.0600 -111.9420 82° East 322 371 13,100 2,220 Climbing FlightAware
06:34PM 41.0530 -111.8680 97° East 339 390 14,500 1,620 Climbing FlightAware
06:35PM 41.0450 -111.7880 98° East 379 436 15,100 1,620 Climbing FlightAware
06:36PM 41.0380 -111.7180 98° East 383 441 16,400 2,640 Climbing FlightAware
06:36PM 41.0420 -111.6570 85° East 383 441 17,600 2,640 Climbing FlightAware
06:36PM 41.0580 -111.5850 74° East 388 447 18,900 2,340 Climbing FlightAware
06:37PM 41.0770 -111.5010 73° East 397 457 20,300 2,040 Climbing FlightAware
06:38PM 41.0970 -111.4230 71° East 408 470 21,300 2,040 Climbing FlightAware
06:38PM 41.1260 -111.3340 67° East 411 473 22,800 2,160 Climbing FlightAware
06:39PM 41.1540 -111.2510 66° East 416 479 24,000 1,800 Climbing FlightAware
06:39PM 41.1740 -111.1720 71° East 428 493 24,900 900 Climbing FlightAware
06:40PM 41.1890 -111.1170 70° East 428 493 24,900  Level FlightAware
06:41PM 41.2150 -111.0140 71° East 428 493 24,900  Level FlightAware
06:41PM 41.2350 -110.9370 71° East 428 493 24,900  Level FlightAware
06:42PM 41.2480 -110.8870 71° East 428 493 24,900  Level FlightAware
06:43PM 41.2880 -110.7340 71° East 428 493 24,900 2,160 Level FlightAware
06:44PM 41.3317 -110.3842 71° East 495 570 30,400 2,460 Climbing Salt Lake Center
06:46PM 41.4053 -110.0078 75° East 505 581 33,400 1,380 Climbing Salt Lake Center
06:47PM 41.4383 -109.8344 76° East 505 581 34,700 1,140 Climbing Salt Lake Center
06:48PM 41.4714 -109.6628 76° East 502 578 35,800 900 Climbing Salt Lake Center
06:49PM 41.5089 -109.4617 76° East 500 575 36,600 540 Climbing Salt Lake Center
06:50PM 41.5431 -109.2850 75° East 505 581 37,000 180 Climbing Salt Lake Center
06:51PM 41.5814 -109.0728 76° East 512 589 37,000  Level Salt Lake Center
06:52PM 41.6008 -108.8936 82° East 505 581 37,000  Level Salt Lake Center
06:53PM 41.6142 -108.7169 84° East 498 573 37,000  Level Salt Lake Center
06:54PM 41.6286 -108.5125 85° East 493 567 37,000  Level Salt Lake Center
06:56PM 41.6417 -108.3353 84° East 497 572 37,000  Level Salt Lake Center
06:57PM 41.6569 -108.1292 84° East 499 574 37,000  Level Salt Lake Center
06:58PM 41.6697 -107.9519 84° East 501 577 37,000  Level Salt Lake Center
06:59PM 41.6844 -107.7433 85° East 503 579 37,000  Level Salt Lake Center
07:04PM 41.7520 -106.6740 85° East 511 588 37,000  Level FlightAware
07:05PM 41.7590 -106.5670 85° East 511 588 37,000  Level FlightAware
07:06PM 41.7650 -106.4390 86° East 511 588 37,000  Level FlightAware
07:06PM 41.7720 -106.3250 85° East 511 588 37,000  Level FlightAware
07:07PM 41.7780 -106.2110 86° East 511 588 37,000  Level FlightAware
07:07PM 41.7830 -106.1150 86° East 511 588 37,000  Level FlightAware
07:08PM 41.7890 -105.9950 86° East 510 587 37,000  Level FlightAware
07:08PM 41.7950 -105.8820 86° East 509 586 37,000  Level FlightAware
07:09PM 41.8010 -105.7740 86° East 509 586 37,000  Level FlightAware
07:10PM 41.8080 -105.6230 86° East 511 588 37,000  Level FlightAware
07:11PM 41.8140 -105.5010 86° East 511 588 37,000  Level FlightAware
07:11PM 41.8210 -105.3680 86° East 512 589 37,000  Level FlightAware
07:12PM 41.8260 -105.2450 87° East 512 589 37,000  Level FlightAware
07:12PM 41.8320 -105.1300 86° East 509 586 37,000  Level FlightAware
07:13PM 41.8360 -105.0280 87° East 509 586 37,000  Level FlightAware
07:14PM 41.8410 -104.9200 86° East 510 587 37,000  Level FlightAware
07:14PM 41.8480 -104.7620 87° East 511 588 37,000  Level FlightAware
07:15PM 41.8530 -104.6360 87° East 511 588 37,000  Level FlightAware
07:16PM 41.8580 -104.5110 87° East 510 587 37,000  Level FlightAware
07:16PM 41.8620 -104.4120 87° East 508 585 37,000  Level FlightAware
07:17PM 41.8660 -104.3060 87° East 510 587 37,000  Level FlightAware
07:18PM 41.8650 -104.1470 90° East 508 585 37,000  Level FlightAware
07:18PM 41.8580 -104.0330 95° East 508 585 37,000  Level FlightAware
07:19PM 41.8510 -103.9200 95° East 507 583 37,000  Level FlightAware
07:19PM 41.8450 -103.8200 95° East 508 585 37,000  Level FlightAware
07:20PM 41.8400 -103.7460 95° East 508 585 37,000  Level FlightAware
07:21PM 41.8310 -103.5960 95° East 511 588 37,000  Level FlightAware
07:21PM 41.8230 -103.4740 95° East 512 589 37,000  Level FlightAware
07:22PM 41.8160 -103.3720 95° East 514 592 37,000  Level FlightAware
07:22PM 41.8120 -103.3100 95° East 515 593 37,000  Level FlightAware
07:23PM 41.7990 -103.1070 95° East 513 590 37,000  Level FlightAware
07:24PM 41.7910 -102.9960 95° East 521 600 37,000  Level FlightAware
07:24PM 41.7830 -102.8800 95° East 521 600 37,000  Level FlightAware
07:25PM 41.7760 -102.7690 95° East 521 600 37,000  Level FlightAware
07:26PM 41.7690 -102.6710 95° East 521 600 37,000  Level FlightAware
07:26PM 41.7580 -102.5260 96° East 516 594 37,000  Level FlightAware
07:27PM 41.7460 -102.3700 96° East 511 588 37,000  Level FlightAware
07:28PM 41.7350 -102.2130 95° East 513 590 37,000  Level FlightAware
07:28PM 41.7290 -102.1160 95° East 513 590 37,000  Level FlightAware
07:29PM 41.7220 -102.0190 95° East 513 590 37,000  Level FlightAware
07:30PM 41.7160 -101.9220 95° East 513 590 37,000  Level FlightAware
07:30PM 41.7100 -101.8260 95° East 513 590 37,000  Level FlightAware
07:31PM 41.7030 -101.7290 95° East 513 590 37,000  Level FlightAware
07:31PM 41.6970 -101.6320 95° East 513 590 37,000  Level FlightAware
07:32PM 41.6910 -101.5350 95° East 513 590 37,000  Level FlightAware
07:33PM 41.6840 -101.4380 95° East 513 590 37,000  Level FlightAware
07:33PM 41.6780 -101.3410 95° East 513 590 37,000  Level FlightAware
07:34PM 41.6710 -101.2420 95° East 513 590 37,000  Level FlightAware
07:35PM 41.6650 -101.1450 95° East 513 590 37,000  Level FlightAware
07:35PM 41.6590 -101.0480 95° East 513 590 37,000  Level FlightAware
07:36PM 41.6520 -100.9480 95° East 513 590 37,000  Level FlightAware
07:36PM 41.6460 -100.8490 95° East 513 590 37,000  Level FlightAware
07:37PM 41.6390 -100.7520 95° East 513 590 37,000  Level FlightAware
07:38PM 41.5975 -100.3353 95° East 514 592 37,000  Level Minneapolis Center
07:38PM 41.6011 -100.1961 88° East 521 600 37,000  Level Denver Center
07:43PM 41.6010 -99.2230 88° East 530 610 37,000  Level FlightAware
07:44PM 41.6010 -99.1140 90° East 530 610 37,000  Level FlightAware
07:45PM 41.6000 -98.9560 90° East 529 609 37,000  Level FlightAware
07:46PM 41.5990 -98.8210 91° East 529 609 37,000  Level FlightAware
07:46PM 41.5970 -98.6430 91° East 529 609 37,000  Level FlightAware
07:47PM 41.5970 -98.5320 90° East 529 609 37,000  Level FlightAware
07:48PM 41.5950 -98.4240 91° East 524 603 37,000  Level FlightAware
07:48PM 41.5950 -98.3100 90° East 523 602 37,000  Level FlightAware
07:49PM 41.5930 -98.2060 91° East 522 601 37,000  Level FlightAware
07:50PM 41.5900 -98.0270 91° East 522 601 37,000  Level FlightAware
07:50PM 41.5880 -97.9090 91° East 523 602 37,000  Level FlightAware
07:51PM 41.5870 -97.8210 91° East 524 603 37,000  Level FlightAware
07:51PM 41.5840 -97.6730 92° East 524 603 37,000  Level FlightAware
07:52PM 41.5830 -97.5670 91° East 524 603 37,000  Level FlightAware
07:53PM 41.5810 -97.4550 91° East 524 603 37,000  Level FlightAware
07:53PM 41.5780 -97.3400 92° East 523 602 37,000  Level FlightAware
07:54PM 41.5760 -97.2270 91° East 523 602 37,000  Level FlightAware
07:54PM 41.5740 -97.1130 91° East 524 603 37,000  Level FlightAware
07:55PM 41.5710 -97.0020 92° East 524 603 37,000  Level FlightAware
07:56PM 41.5680 -96.8740 92° East 525 604 37,000  Level FlightAware
07:56PM 41.5650 -96.7400 92° East 526 605 37,000  Level FlightAware
07:57PM 41.5620 -96.6300 92° East 527 606 37,000  Level FlightAware
07:57PM 41.5590 -96.5150 92° East 529 609 37,000  Level FlightAware
07:58PM 41.5550 -96.3970 93° East 529 609 37,000  Level FlightAware
07:59PM 41.5520 -96.2850 92° East 531 611 37,000  Level FlightAware
07:59PM 41.5490 -96.1610 92° East 532 612 37,000  Level FlightAware
08:00PM 41.5530 -96.0950 85° East 532 612 37,000  Level FlightAware
08:01PM 41.5760 -95.8980 81° East 532 612 37,000  Level FlightAware
08:01PM 41.5890 -95.7910 81° East 531 611 37,000  Level FlightAware
08:02PM 41.6040 -95.6720 80° East 532 612 37,000  Level FlightAware
08:02PM 41.6140 -95.5930 80° East 531 611 37,000  Level FlightAware
08:03PM 41.6350 -95.4160 81° East 531 611 37,000  Level FlightAware
08:04PM 41.6520 -95.2810 80° East 530 610 37,000  Level FlightAware
08:04PM 41.6670 -95.1630 80° East 528 608 37,000  Level FlightAware
08:05PM 41.6800 -95.0620 80° East 528 608 37,000  Level FlightAware
08:06PM 41.7020 -94.8930 80° East 526 605 37,000  Level FlightAware
08:06PM 41.7170 -94.7780 80° East 525 604 37,000  Level FlightAware
08:07PM 41.7320 -94.6650 80° East 524 603 37,000  Level FlightAware
08:07PM 41.7470 -94.5500 80° East 522 601 37,000  Level FlightAware
08:08PM 41.7640 -94.4230 80° East 523 602 37,000  Level FlightAware
08:09PM 41.7790 -94.3090 80° East 522 601 37,000 -480 Level FlightAware
08:09PM 41.7890 -94.2040 83° East 523 602 36,500 -960 Descending FlightAware
08:10PM 41.8000 -94.0740 83° East 527 606 35,900 -960 Descending FlightAware
08:10PM 41.8090 -93.9700 83° East 532 612 35,400 -840 Descending FlightAware
08:11PM 41.8200 -93.8530 83° East 534 615 35,000 -360 Descending FlightAware
08:12PM 41.8310 -93.7360 83° East 533 613 35,000  Level FlightAware
08:12PM 41.8420 -93.6200 83° East 533 613 35,000  Level FlightAware
08:13PM 41.8530 -93.5120 82° East 532 612 35,000  Level FlightAware
08:13PM 41.8640 -93.3950 83° East 533 613 35,000  Level FlightAware
08:14PM 41.8740 -93.2850 83° East 533 613 35,000  Level FlightAware
08:15PM 41.8790 -93.1790 86° East 533 613 35,000  Level FlightAware
08:15PM 41.8840 -93.0570 87° East 534 615 35,000  Level FlightAware
08:16PM 41.8900 -92.9350 86° East 534 615 35,000  Level FlightAware
08:16PM 41.8940 -92.8340 87° East 539 620 35,000 -540 Level FlightAware
08:17PM 41.8870 -92.7070 94° East 538 619 34,400 -1,560 Descending FlightAware
08:18PM 41.8790 -92.5880 95° East 540 621 33,100 -1,200 Descending FlightAware
08:18PM 41.8690 -92.4730 97° East 540 621 33,000 -120 Descending FlightAware
08:19PM 41.8500 -92.3620 103° East 536 617 33,000 -960 Level FlightAware
08:19PM 41.8220 -92.2490 108° East 527 606 31,900 -1,560 Descending FlightAware
08:20PM 41.8110 -92.2050 109° East 521 600 31,700 -780 Descending FlightAware
08:20PM 41.7710 -92.0320 107° East 518 596 31,000 -480 Descending FlightAware
08:21PM 41.7470 -91.9300 107° East 517 595 31,000  Level FlightAware
08:22PM 41.7150 -91.7960 108° East 518 596 31,000  Level FlightAware
08:22PM 41.6980 -91.7260 108° East 518 596 31,000  Level FlightAware
08:23PM 41.6510 -91.5300 108° East 521 600 31,000  Level FlightAware
08:24PM 41.6240 -91.4180 108° East 520 598 31,000  Level FlightAware
08:24PM 41.5960 -91.3030 108° East 520 598 31,000  Level FlightAware
08:25PM 41.5690 -91.1940 108° East 520 598 31,000 -900 Level FlightAware
08:26PM 41.5430 -91.0900 108° East 512 589 30,000 -2,160 Descending FlightAware
08:26PM 41.5170 -90.9840 108° East 507 583 28,500 -2,040 Descending FlightAware
08:27PM 41.4950 -90.8950 108° East 493 567 27,700 -1,860 Descending FlightAware
08:27PM 41.4680 -90.7880 109° East 483 556 26,400 -2,760 Descending FlightAware
08:28PM 41.4400 -90.6780 109° East 489 563 24,400 -2,160 Descending FlightAware
08:28PM 41.4200 -90.5920 107° East 483 556 23,900 -1,320 Descending FlightAware
08:29PM 41.4040 -90.4940 102° East 483 556 23,000 -780 Descending FlightAware
08:30PM 41.3860 -90.3860 102° East 490 564 23,000  Level FlightAware
08:30PM 41.3690 -90.2830 102° East 491 565 23,000  Level FlightAware
08:31PM 41.3530 -90.1830 102° East 490 564 23,000 -120 Level FlightAware
08:31PM 41.3350 -90.0770 103° East 479 551 22,900 -1,620 Descending FlightAware
08:32PM 41.3080 -89.9710 109° East 478 550 21,100 -2,700 Descending FlightAware
08:33PM 41.2830 -89.8830 111° Southeast 466 536 19,800 -2,340 Descending FlightAware
08:33PM 41.2530 -89.7960 115° Southeast 452 520 18,500 -2,400 Descending FlightAware
08:34PM 41.2160 -89.7150 121° Southeast 442 509 17,100 -2,340 Descending FlightAware
08:34PM 41.1880 -89.6470 119° Southeast 429 494 16,100 -1,800 Descending FlightAware
08:34PM 41.1830 -89.6130 101° East 422 486 15,900 -1,200 Descending FlightAware
08:35PM 41.1950 -89.5390 78° East 404 465 15,300 -780 Descending FlightAware
08:36PM 41.2200 -89.4560 68° East 403 464 15,100 -360 Descending FlightAware
08:36PM 41.2420 -89.3780 69° East 404 465 14,900 -660 Descending FlightAware
08:37PM 41.2650 -89.3000 69° East 402 463 14,400 -1,380 Descending FlightAware
08:37PM 41.2900 -89.2170 68° East 393 452 13,400 -1,500 Descending FlightAware
08:38PM 41.3130 -89.1380 69° East 387 445 12,600 -1,680 Descending FlightAware
08:38PM 41.3330 -89.0670 69° East 379 436 11,500 -1,740 Descending FlightAware
08:39PM 41.3560 -88.9870 69° East 355 409 10,600 -1,140 Descending FlightAware
08:39PM 41.3700 -88.9400 68° East 335 386 10,400 -600 Descending FlightAware
08:40PM 41.3950 -88.8530 69° East 301 346 9,900 -840 Descending FlightAware
08:40PM 41.4010 -88.8320 69° East 300 345 9,600 -1,320 Descending FlightAware
08:41PM 41.4110 -88.7980 69° East 298 343 9,200 -1,380 Descending FlightAware
08:41PM 41.4230 -88.7560 69° East 297 342 8,600 -1,500 Descending FlightAware
08:41PM 41.4270 -88.7420 69° East 297 342 8,400 -1,080 Descending FlightAware
08:42PM 41.4370 -88.7040 71° East 295 339 7,800 -1,440 Descending FlightAware
08:42PM 41.4580 -88.6330 68° East 293 337 6,900 -1,800 Descending FlightAware
08:43PM 41.4670 -88.5990 71° East 292 336 6,400 -1,200 Descending FlightAware
08:43PM 41.4760 -88.5660 70° East 290 334 6,100 -480 Descending FlightAware
08:43PM 41.4850 -88.5360 68° East 289 333 6,100  Level FlightAware
08:44PM 41.4950 -88.4990 70° East 287 330 6,100  Level FlightAware
08:44PM 41.5020 -88.4730 70° East 286 329 6,100 -360 Level FlightAware
08:44PM 41.5120 -88.4400 68° East 287 330 5,900 -840 Descending FlightAware
08:45PM 41.5190 -88.4140 70° East 287 330 5,600 -1,020 Descending FlightAware
08:45PM 41.5290 -88.3800 69° East 287 330 5,300 -780 Descending FlightAware
08:45PM 41.5380 -88.3480 69° East 287 330 5,100 -420 Descending FlightAware
08:45PM 41.5450 -88.3250 68° East 286 329 5,100  Level FlightAware
08:46PM 41.5570 -88.2850 68° East 284 327 5,100  Level FlightAware
08:46PM 41.5660 -88.2520 70° East 284 327 5,100  Level FlightAware
08:46PM 41.5720 -88.2330 67° East 284 327 5,100  Level FlightAware
08:47PM 41.5740 -88.2200 78° East 285 328 5,100  Level FlightAware
08:47PM 41.5750 -88.1840 88° East 287 330 5,100  Level FlightAware
08:47PM 41.5760 -88.1550 87° East 287 330 5,100  Level FlightAware
08:47PM 41.5760 -88.1340 90° East 287 330 5,100  Level FlightAware
08:48PM 41.5780 -88.0910 86° East 288 331 5,100  Level FlightAware
08:48PM 41.5790 -88.0560 88° East 287 330 5,100  Level FlightAware
08:48PM 41.5800 -88.0210 88° East 287 330 5,100  Level FlightAware
08:49PM 41.5810 -87.9840 88° East 288 331 5,100  Level FlightAware
08:49PM 41.5820 -87.9430 88° East 287 330 5,100  Level FlightAware
08:49PM 41.5830 -87.9070 88° East 286 329 5,100  Level FlightAware
08:50PM 41.5840 -87.8730 88° East 285 328 5,100 -480 Level FlightAware
08:50PM 41.5860 -87.8370 86° East 286 329 4,800 -960 Descending FlightAware
08:51PM 41.5870 -87.7940 88° East 284 327 4,400 -960 Descending FlightAware
08:51PM 41.5880 -87.7600 88° East 280 322 4,100 -480 Descending FlightAware
08:51PM 41.5910 -87.7280 83° East 268 308 4,100  Level FlightAware
08:51PM 41.5950 -87.7150 68° East 260 299 4,100 -480 Level FlightAware
08:52PM 41.6110 -87.6920 47° Northeast 246 283 3,900 -1,200 Descending FlightAware
08:52PM 41.6260 -87.6680 50° Northeast 259 298 3,300 -1,200 Descending FlightAware
08:52PM 41.6420 -87.6450 47° Northeast 242 278 3,100 -420 Descending FlightAware
08:53PM 41.6590 -87.6210 47° Northeast 212 244 3,000  Descending FlightAware
08:53PM 41.6620 -87.6180 37° Northeast 207 238 3,100 480 Climbing FlightAware
08:53PM 41.6690 -87.6140 23° Northeast 195 224 3,100  Level FlightAware
08:53PM 41.6720 -87.6140 360° North 194 223 3,100  Level FlightAware
08:53PM 41.6900 -87.6260 334° Northwest 171 197 3,100 -180 Level FlightAware
08:54PM 41.7020 -87.6400 319° Northwest 176 203 3,000 -720 Descending FlightAware
08:54PM 41.7170 -87.6560 321° Northwest 175 201 2,600 -1,260 Descending FlightAware
08:54PM 41.7300 -87.6720 317° Northwest 184 212 2,100 -1,500 Descending FlightAware
08:55PM 41.7330 -87.6730 346° North 186 214 2,000 -1,020 Descending FlightAware
08:55PM 41.7390 -87.6760 340° North 186 214 1,900 -780 Descending FlightAware
08:55PM 41.7460 -87.6770 354° North 183 211 1,800 -240 Descending FlightAware
08:55PM 41.7600 -87.6740 North 173 199 1,800  Level FlightAware
08:55PM 41.7660 -87.6690 32° Northeast 173 199 1,800  Level FlightAware
08:56PM 41.7800 -87.6560 35° Northeast 174 200 1,800  Level FlightAware
08:56PM 41.7850 -87.6530 24° Northeast 174 200 1,800  Level FlightAware
08:56PM 41.7900 -87.6520 North 174 200 1,800  Level FlightAware
08:56PM 41.8070 -87.6600 341° North 169 194 1,800  Level FlightAware
08:56PM 41.8110 -87.6670 307° West 166 191 1,800  Level FlightAware
08:57PM 41.8200 -87.6830 307° West 159 183 1,800  Level FlightAware
08:57PM 41.8220 -87.6910 289° West 155 178 1,800 -900 Level FlightAware
08:57PM 41.8160 -87.7130 250° West 138 159 1,300 -660 Descending FlightAware
08:58PM 41.8030 -87.7290 223° Southwest 138 159 1,200 -240 Descending FlightAware